Flight Track Log - Related Links

Times and Time Zones

All times are in EDT time to prevent confusion due to time zone crossing. See the KAP720 flight status page for this flight to view local times or setup timezone preferences in your user account.

Time Position Orientation Groundspeed Altitude Reporting Facility
EDT Latitude Longitude Course Direction KTS MPH feet Rate Location/Type
Thu 02:47:06 PM 42.3667 -71.0333 270° West 92 106 900  Level KA90
Thu 02:48:04 PM 42.3333 -71.0333 180° South 118 136 1,600 667 Climbing KA90
Thu 02:49:03 PM 42.3000 -71.0333 180° South 121 139 2,200 528 Climbing KA90
Thu 02:50:09 PM 42.2667 -71.0500 200° South 122 140 2,700 567 Climbing KA90
Thu 02:51:10 PM 42.2333 -71.0500 180° South 131 151 3,400 545 Climbing KA90
Thu 02:52:10 PM 42.2000 -71.0500 180° South 127 146 3,800 414 Climbing KA90
Thu 02:53:06 PM 42.1667 -71.0667 200° South 129 148 4,200 432 Climbing KA90
Thu 02:54:15 PM 42.1333 -71.0333 143° Southeast 157 181 4,700 415 Climbing KA90
Thu 02:55:16 PM 42.1000 -70.9833 132° Southeast 157 181 5,100 362 Climbing KA90
Thu 02:56:11 PM 42.0667 -70.9500 143° Southeast 154 177 5,400 327 Climbing KA90
Thu 02:58:00 PM 42.0085 -70.8854 140° Southeast  Level Estimated
Thu 03:05:00 PM 41.7842 -70.6376 140° Southeast  Level Estimated
Thu 03:06:00 PM 41.7521 -70.6024 141° Southeast  Level Estimated
Thu 03:07:00 PM 41.7200 -70.5672 141° Southeast  Level Estimated
Thu 03:08:00 PM 41.6878 -70.5320 141° Southeast  Level Estimated
Thu 03:09:00 PM 41.6557 -70.4968 141° Southeast  Level Estimated
Thu 03:10:00 PM 41.6236 -70.4617 141° Southeast  Level Estimated
Thu 03:11:00 PM 41.5914 -70.4267 141° Southeast  Level Estimated
Thu 03:12:00 PM 41.5593 -70.3916 141° Southeast  Level Estimated
Thu 03:13:00 PM 41.5271 -70.3566 141° Southeast  Level Estimated
Thu 03:14:00 PM 41.4949 -70.3216 141° Southeast  Level Estimated
Thu 03:15:00 PM 41.4627 -70.2867 141° Southeast  Level Estimated
Thu 03:16:00 PM 41.4305 -70.2518 141° Southeast  Level Estimated
Thu 03:17:00 PM 41.3983 -70.2169 141° Southeast  Level Estimated
Thu 03:18:00 PM 41.3661 -70.1821 141° Southeast  Level Estimated
Thu 03:19:00 PM 41.3339 -70.1473 141° Southeast  Level Estimated
Thu 03:20:00 PM 41.3016 -70.1125 141° Southeast  Level Estimated
Thu 03:21:00 PM 41.2694 -70.0778 141° Southeast  Level Estimated
Thu 03:22:00 PM 41.2531 -70.0603 141° Southeast  Level Estimated
Thu 03:23:00 PM 41.2531 -70.0603 72° East  Level Estimated
Thu 03:24:00 PM 41.2531 -70.0603 72° East  Level Estimated
Thu 03:25:00 PM 41.2531 -70.0603 72° East  Level Estimated

Login

Don't have an account? Register now (free) for customized features, flight alerts, and more!